createdAt,value
2019-05-26T00:01:44.694Z,54.09
2019-05-26T00:04:13.129Z,53.01
2019-05-26T00:06:41.633Z,52.66
2019-05-26T00:09:09.863Z,52.48
2019-05-26T00:11:37.998Z,52.46
2019-05-26T00:14:06.217Z,52.41
2019-05-26T00:16:34.310Z,52.39
2019-05-26T00:19:02.592Z,52.38
2019-05-26T00:21:30.723Z,52.45
2019-05-26T00:23:58.817Z,52.45
2019-05-26T00:26:27.003Z,52.65
2019-05-26T00:28:55.102Z,52.42
2019-05-26T00:31:23.271Z,52.35
2019-05-26T00:33:51.451Z,52.62
2019-05-26T00:36:19.653Z,52.41
2019-05-26T00:38:47.779Z,52.57
2019-05-26T00:41:15.935Z,52.56
2019-05-26T00:43:44.051Z,52.54
2019-05-26T00:46:12.165Z,52.46
2019-05-26T00:48:40.258Z,52.59
2019-05-26T00:51:08.473Z,52.48
2019-05-26T00:53:36.713Z,52.50
2019-05-26T00:56:04.848Z,52.55
2019-05-26T00:58:33.007Z,52.49
2019-05-26T01:01:01.136Z,52.33
2019-05-26T01:03:29.522Z,52.55
2019-05-26T01:05:57.701Z,52.28
2019-05-26T01:08:25.795Z,52.34
2019-05-26T01:10:53.943Z,52.30
2019-05-26T01:13:22.090Z,52.49
2019-05-26T01:15:50.274Z,52.16
2019-05-26T01:18:18.521Z,53.24
2019-05-26T01:20:46.615Z,54.99
2019-05-26T01:23:14.767Z,52.82
2019-05-26T01:25:43.589Z,52.22
2019-05-26T01:28:11.771Z,52.20
2019-05-26T01:30:40.339Z,51.93
2019-05-26T01:33:09.145Z,51.91
2019-05-26T01:35:41.271Z,51.92
2019-05-26T01:38:23.059Z,52.16
2019-05-26T01:40:44.300Z,52.09
2019-05-26T01:43:13.605Z,52.13
2019-05-26T01:45:41.737Z,51.99
2019-05-26T01:48:10.493Z,52.15
2019-05-26T01:50:38.625Z,52.30
2019-05-26T01:53:07.527Z,52.07
2019-05-26T01:55:35.719Z,52.37
2019-05-26T01:58:04.186Z,52.31
2019-05-26T02:00:32.372Z,52.43
2019-05-26T02:03:00.528Z,52.25
2019-05-26T02:05:28.707Z,52.30
2019-05-26T02:07:56.860Z,52.16
2019-05-26T02:10:25.153Z,52.17
2019-05-26T02:12:53.380Z,52.14
2019-05-26T02:15:26.476Z,52.17
2019-05-26T02:17:54.663Z,52.39
2019-05-26T02:20:23.065Z,52.06
2019-05-26T02:22:51.236Z,52.20
2019-05-26T02:25:19.868Z,51.97
2019-05-26T02:27:48.123Z,51.80
2019-05-26T02:30:55.633Z,52.71
2019-05-26T02:33:23.761Z,52.07
2019-05-26T02:35:51.850Z,52.93
2019-05-26T02:38:19.940Z,51.93
2019-05-26T02:40:48.029Z,51.78
2019-05-26T02:43:16.248Z,52.20
2019-05-26T02:45:44.399Z,67.73
2019-05-26T02:48:12.531Z,58.67
2019-05-26T02:50:40.662Z,53.27
2019-05-26T02:53:08.859Z,53.21
2019-05-26T02:55:36.961Z,51.98
2019-05-26T02:58:05.154Z,58.60
2019-05-26T03:00:44.306Z,75.17
2019-05-26T03:03:13.467Z,67.30
2019-05-26T03:05:44.377Z,55.14
2019-05-26T03:08:13.044Z,70.91
2019-05-26T03:10:41.805Z,63.53
2019-05-26T03:13:11.410Z,59.31
2019-05-26T03:15:40.873Z,68.12
2019-05-26T03:18:09.673Z,68.12
2019-05-26T03:20:41.517Z,74.25
2019-05-26T03:23:10.255Z,57.70
2019-05-26T03:25:38.639Z,54.05
2019-05-26T03:28:06.893Z,52.27
2019-05-26T03:30:35.019Z,72.96
2019-05-26T03:33:03.182Z,53.90
2019-05-26T03:35:31.349Z,66.73
2019-05-26T03:37:59.486Z,53.84
2019-05-26T03:40:27.660Z,54.57
2019-05-26T03:42:55.795Z,51.89
2019-05-26T03:45:44.961Z,53.10
2019-05-26T03:48:13.128Z,54.63
2019-05-26T03:50:41.258Z,52.89
2019-05-26T03:53:09.424Z,52.61
2019-05-26T03:55:37.564Z,63.96
2019-05-26T03:58:05.686Z,61.41
2019-05-26T04:00:33.856Z,53.58
2019-05-26T04:03:02.127Z,59.88
2019-05-26T04:05:30.238Z,52.37
2019-05-26T04:08:03.751Z,55.57
2019-05-26T04:10:28.213Z,53.01
2019-05-26T04:12:56.389Z,71.17
2019-05-26T04:15:24.594Z,73.96
2019-05-26T04:17:52.893Z,58.19
2019-05-26T04:20:21.040Z,76.95
2019-05-26T04:22:49.142Z,57.74
2019-05-26T04:25:17.293Z,72.46
2019-05-26T04:27:45.389Z,78.63
2019-05-26T04:30:13.667Z,76.20
2019-05-26T04:32:41.841Z,80.47
2019-05-26T04:35:10.162Z,81.37
2019-05-26T04:37:38.991Z,76.31
2019-05-26T04:40:25.098Z,81.60
2019-05-26T04:42:37.107Z,82.16
2019-05-26T04:45:05.209Z,69.29
2019-05-26T04:47:33.361Z,81.03
2019-05-26T04:50:01.503Z,80.83
2019-05-26T04:52:29.713Z,81.25
2019-05-26T04:54:57.831Z,80.39
2019-05-26T04:57:26.100Z,80.17
2019-05-26T04:59:54.210Z,80.49
2019-05-26T05:02:22.384Z,80.74
2019-05-26T05:04:50.516Z,79.72
2019-05-26T05:07:18.698Z,80.22
2019-05-26T05:09:46.917Z,80.31
2019-05-26T05:12:15.176Z,80.42
2019-05-26T05:14:43.337Z,79.59
2019-05-26T05:17:11.477Z,78.91
2019-05-26T05:19:39.633Z,78.77
2019-05-26T05:22:07.709Z,78.54
2019-05-26T05:24:35.862Z,77.89
2019-05-26T05:27:04.134Z,78.08
2019-05-26T05:29:32.266Z,78.81
2019-05-26T05:32:00.372Z,78.27
2019-05-26T05:34:28.525Z,78.45
2019-05-26T05:36:56.636Z,77.30
2019-05-26T05:39:24.808Z,76.02
2019-05-26T05:41:53.091Z,76.50
2019-05-26T05:44:21.284Z,76.30
2019-05-26T05:46:49.430Z,58.27
2019-05-26T05:49:17.605Z,72.97
2019-05-26T05:51:45.752Z,72.64
2019-05-26T05:54:13.878Z,71.82
2019-05-26T05:56:42.055Z,73.92
2019-05-26T05:59:10.386Z,71.46
2019-05-26T06:01:38.684Z,68.82
2019-05-26T06:04:06.844Z,69.52
2019-05-26T06:06:34.979Z,66.93
2019-05-26T06:09:03.190Z,56.88
2019-05-26T06:11:31.371Z,66.26
2019-05-26T06:13:59.516Z,64.34
2019-05-26T06:16:28.170Z,67.03
2019-05-26T06:18:56.366Z,61.66
2019-05-26T06:21:25.108Z,62.51
2019-05-26T06:23:53.319Z,66.22
2019-05-26T06:26:21.552Z,62.56
2019-05-26T06:28:52.309Z,65.15
2019-05-26T06:31:19.594Z,57.97
2019-05-26T06:33:47.826Z,57.97
2019-05-26T06:36:15.982Z,58.03
2019-05-26T06:38:44.188Z,63.65
2019-05-26T06:41:12.356Z,62.55
2019-05-26T06:43:40.605Z,63.60
2019-05-26T06:46:08.755Z,56.91
2019-05-26T06:48:36.866Z,58.51
2019-05-26T06:51:05.195Z,60.54
2019-05-26T06:53:37.164Z,61.86
2019-05-26T06:56:03.661Z,56.70
2019-05-26T06:58:31.788Z,58.20
2019-05-26T07:01:00.045Z,60.49
2019-05-26T07:03:28.306Z,57.41
2019-05-26T07:05:56.438Z,57.54
2019-05-26T07:08:24.574Z,60.15
2019-05-26T07:10:52.772Z,57.09
2019-05-26T07:13:20.924Z,60.43
2019-05-26T07:15:49.053Z,58.14
2019-05-26T07:18:17.222Z,56.18
2019-05-26T07:20:45.432Z,55.09
2019-05-26T07:23:13.704Z,57.91
2019-05-26T07:25:41.864Z,55.30
2019-05-26T07:28:10.157Z,55.30
2019-05-26T07:30:38.449Z,55.43
2019-05-26T07:33:06.639Z,56.34
2019-05-26T07:35:34.755Z,57.37
2019-05-26T07:38:02.929Z,55.79
2019-05-26T07:40:31.122Z,54.91
2019-05-26T07:42:59.339Z,54.90
2019-05-26T07:45:27.514Z,54.90
2019-05-26T07:47:55.790Z,54.09
2019-05-26T07:50:24.053Z,54.63
2019-05-26T07:52:52.249Z,54.67
2019-05-26T07:55:20.503Z,51.67
2019-05-26T07:57:48.653Z,53.11
2019-05-26T08:00:17.031Z,51.57
2019-05-26T08:02:45.174Z,53.60
2019-05-26T08:05:13.457Z,51.10
2019-05-26T08:07:41.597Z,50.44
2019-05-26T08:10:09.890Z,52.43
2019-05-26T08:12:37.995Z,51.02
2019-05-26T08:15:07.746Z,50.87
2019-05-26T08:17:35.912Z,50.94
2019-05-26T08:20:04.516Z,50.70
2019-05-26T08:22:32.723Z,53.18
2019-05-26T08:25:00.955Z,51.72
2019-05-26T08:27:29.134Z,50.83
2019-05-26T08:29:57.313Z,52.82
2019-05-26T08:32:25.531Z,51.49
2019-05-26T08:34:53.817Z,52.36
2019-05-26T08:37:22.047Z,54.33
2019-05-26T08:39:50.181Z,51.92
2019-05-26T08:42:26.939Z,51.60
2019-05-26T08:44:48.274Z,52.53
2019-05-26T08:47:16.440Z,51.86
2019-05-26T08:49:44.554Z,51.59
2019-05-26T08:52:12.695Z,51.23
2019-05-26T08:54:40.894Z,52.13
2019-05-26T08:57:09.263Z,53.00
2019-05-26T08:59:37.449Z,49.03
2019-05-26T09:02:05.621Z,49.32
2019-05-26T09:04:33.738Z,49.46
2019-05-26T09:07:01.832Z,49.98
2019-05-26T09:09:30.016Z,46.86
2019-05-26T09:11:58.174Z,49.90
2019-05-26T09:14:26.313Z,50.78
2019-05-26T09:16:54.480Z,44.77
2019-05-26T09:19:22.659Z,47.06
2019-05-26T09:21:50.911Z,52.15
2019-05-26T09:24:19.024Z,48.53
2019-05-26T09:26:47.212Z,45.30
2019-05-26T09:29:15.433Z,44.84
2019-05-26T09:31:43.720Z,46.33
2019-05-26T09:34:11.860Z,50.13
2019-05-26T09:36:40.093Z,41.92
2019-05-26T09:39:09.094Z,41.55
2019-05-26T09:41:37.349Z,40.69
2019-05-26T09:44:06.617Z,39.21
2019-05-26T09:46:34.893Z,42.15
2019-05-26T09:49:03.060Z,50.21
2019-05-26T09:51:31.251Z,47.03
2019-05-26T09:54:02.011Z,40.64
2019-05-26T09:56:28.363Z,42.18
2019-05-26T09:58:56.727Z,40.99
2019-05-26T10:01:24.966Z,40.43
2019-05-26T10:03:53.133Z,39.36
2019-05-26T10:06:21.414Z,40.76
2019-05-26T10:08:49.712Z,39.68
2019-05-26T10:11:17.937Z,47.37
2019-05-26T10:13:46.221Z,39.32
2019-05-26T10:16:14.499Z,41.99
2019-05-26T10:18:42.762Z,44.19
2019-05-26T10:21:10.888Z,42.90
2019-05-26T10:23:39.084Z,40.47
2019-05-26T10:26:07.278Z,39.83
2019-05-26T10:28:35.508Z,43.47
2019-05-26T10:31:03.835Z,44.90
2019-05-26T10:33:32.025Z,40.68
2019-05-26T10:36:00.195Z,42.52
2019-05-26T10:38:28.413Z,42.59
2019-05-26T10:40:56.544Z,37.09
2019-05-26T10:43:24.718Z,38.09
2019-05-26T10:45:52.957Z,36.93
2019-05-26T10:48:21.118Z,47.91
2019-05-26T10:50:49.339Z,40.62
2019-05-26T10:53:17.555Z,38.99
2019-05-26T10:55:45.823Z,43.06
2019-05-26T10:58:14.019Z,46.87
2019-05-26T11:00:42.227Z,41.10
2019-05-26T11:03:10.465Z,44.66
2019-05-26T11:05:38.621Z,38.99
2019-05-26T11:08:06.895Z,37.77
2019-05-26T11:10:35.067Z,41.39
2019-05-26T11:13:03.369Z,42.50
2019-05-26T11:15:31.601Z,39.75
2019-05-26T11:17:59.814Z,34.02
2019-05-26T11:20:28.203Z,37.21
2019-05-26T11:22:56.409Z,37.60
2019-05-26T11:25:24.567Z,40.17
2019-05-26T11:27:53.489Z,40.96
2019-05-26T11:30:22.066Z,42.06
2019-05-26T11:32:50.268Z,42.58
2019-05-26T11:35:19.215Z,42.39
2019-05-26T11:37:47.435Z,41.86
2019-05-26T11:40:16.819Z,41.86
2019-05-26T11:42:45.379Z,36.46
2019-05-26T11:45:14.269Z,45.00
2019-05-26T11:47:42.508Z,43.44
2019-05-26T11:50:10.982Z,42.21
2019-05-26T11:52:39.327Z,35.54
2019-05-26T11:55:08.129Z,37.82
2019-05-26T11:57:37.280Z,32.50
2019-05-26T12:00:06.915Z,36.65
2019-05-26T12:02:35.078Z,37.76
2019-05-26T12:05:03.369Z,43.34
2019-05-26T12:07:31.895Z,39.15
2019-05-26T12:10:00.194Z,38.75
2019-05-26T12:12:28.427Z,37.75
2019-05-26T12:14:56.889Z,40.77
2019-05-26T12:17:25.088Z,39.45
2019-05-26T12:19:53.717Z,39.46
2019-05-26T12:22:21.954Z,36.18
2019-05-26T12:24:50.146Z,35.67
2019-05-26T12:27:18.298Z,39.64
2019-05-26T12:29:46.542Z,37.01
2019-05-26T12:32:14.783Z,37.31
2019-05-26T12:34:43.168Z,34.00
2019-05-26T12:37:11.378Z,35.73
2019-05-26T12:39:39.693Z,33.68
2019-05-26T12:42:07.900Z,38.62
2019-05-26T12:44:48.616Z,32.94
2019-05-26T12:47:06.101Z,32.59
2019-05-26T12:49:34.375Z,32.73
2019-05-26T12:52:02.582Z,38.12
2019-05-26T12:54:31.106Z,34.50
2019-05-26T12:56:59.306Z,37.19
2019-05-26T12:59:27.446Z,39.05
2019-05-26T13:01:55.735Z,39.41
2019-05-26T13:04:23.872Z,38.54
2019-05-26T13:06:52.097Z,39.36
2019-05-26T13:09:20.255Z,35.61
2019-05-26T13:11:48.642Z,33.42
2019-05-26T13:14:16.806Z,33.55
2019-05-26T13:16:44.976Z,38.35
2019-05-26T13:19:13.193Z,32.77
2019-05-26T13:21:41.370Z,34.38
2019-05-26T13:24:09.580Z,37.01
2019-05-26T13:26:37.789Z,33.38
2019-05-26T13:29:06.053Z,36.79
2019-05-26T13:31:34.210Z,32.42
2019-05-26T13:34:02.455Z,34.71
2019-05-26T13:36:30.586Z,36.71
2019-05-26T13:38:58.859Z,39.29
2019-05-26T13:41:26.987Z,36.28
2019-05-26T13:43:55.262Z,33.13
2019-05-26T13:46:23.474Z,30.50
2019-05-26T13:48:51.655Z,29.10
2019-05-26T13:51:19.886Z,37.34
2019-05-26T13:53:48.115Z,39.04
2019-05-26T13:56:16.295Z,29.62
2019-05-26T13:58:44.464Z,36.77
2019-05-26T14:01:12.970Z,33.15
2019-05-26T14:03:41.209Z,31.48
2019-05-26T14:06:09.442Z,32.20
2019-05-26T14:08:37.630Z,33.53
2019-05-26T14:11:05.806Z,32.74
2019-05-26T14:13:34.103Z,31.07
2019-05-26T14:16:03.308Z,32.18
2019-05-26T14:18:32.029Z,30.25
2019-05-26T14:21:00.212Z,33.17
2019-05-26T14:23:28.356Z,31.04
2019-05-26T14:25:56.607Z,37.85
2019-05-26T14:28:24.797Z,35.39
2019-05-26T14:30:52.954Z,29.60
2019-05-26T14:33:21.250Z,35.78
2019-05-26T14:35:49.475Z,29.37
2019-05-26T14:38:17.695Z,35.23
2019-05-26T14:40:45.872Z,31.63
2019-05-26T14:43:14.077Z,35.04
2019-05-26T14:45:52.825Z,30.68
2019-05-26T14:48:12.176Z,29.10
2019-05-26T14:50:41.192Z,31.91
2019-05-26T14:53:09.493Z,34.12
2019-05-26T14:55:38.090Z,34.02
2019-05-26T14:58:15.573Z,36.68
2019-05-26T15:00:36.344Z,33.34
2019-05-26T15:03:04.527Z,34.86
2019-05-26T15:05:32.759Z,31.61
2019-05-26T15:08:00.943Z,38.01
2019-05-26T15:10:29.154Z,32.82
2019-05-26T15:12:57.325Z,34.97
2019-05-26T15:15:25.521Z,35.29
2019-05-26T15:17:53.754Z,35.73
2019-05-26T15:20:21.932Z,38.29
2019-05-26T15:22:50.129Z,29.14
2019-05-26T15:25:18.398Z,32.53
2019-05-26T15:27:46.867Z,36.13
2019-05-26T15:30:17.040Z,29.96
2019-05-26T15:32:45.290Z,33.74
2019-05-26T15:35:13.469Z,35.47
2019-05-26T15:37:41.719Z,30.98
2019-05-26T15:40:10.080Z,36.66
2019-05-26T15:42:38.207Z,31.43
2019-05-26T15:45:07.043Z,30.50
2019-05-26T15:47:35.251Z,28.59
2019-05-26T15:50:03.467Z,35.06
2019-05-26T15:52:31.770Z,34.35
2019-05-26T15:54:59.954Z,30.88
2019-05-26T15:57:28.265Z,42.86
2019-05-26T15:59:56.382Z,34.18
2019-05-26T16:02:24.600Z,32.18
2019-05-26T16:04:52.779Z,38.51
2019-05-26T16:07:20.985Z,35.35
2019-05-26T16:09:49.135Z,38.10
2019-05-26T16:12:17.289Z,35.44
2019-05-26T16:14:45.441Z,31.67
2019-05-26T16:17:13.654Z,32.89
2019-05-26T16:19:41.883Z,37.54
2019-05-26T16:22:10.106Z,32.82
2019-05-26T16:24:38.318Z,36.76
2019-05-26T16:27:18.828Z,35.77
2019-05-26T16:29:36.443Z,40.68
2019-05-26T16:32:04.633Z,35.87
2019-05-26T16:34:32.821Z,36.05
2019-05-26T16:37:01.184Z,34.74
2019-05-26T16:39:37.062Z,39.73
2019-05-26T16:41:59.254Z,36.28
2019-05-26T16:44:27.760Z,35.73
2019-05-26T16:46:57.089Z,42.51
2019-05-26T16:49:25.444Z,36.37
2019-05-26T16:51:53.720Z,38.18
2019-05-26T16:54:21.923Z,38.45
2019-05-26T16:56:50.059Z,35.91
2019-05-26T16:59:18.347Z,39.10
2019-05-26T17:01:46.448Z,38.00
2019-05-26T17:04:14.658Z,37.83
2019-05-26T17:06:42.887Z,37.95
2019-05-26T17:09:11.429Z,38.09
2019-05-26T17:11:39.634Z,38.05
2019-05-26T17:14:07.829Z,36.30
2019-05-26T17:16:35.952Z,39.19
2019-05-26T17:19:04.118Z,37.74
2019-05-26T17:21:32.353Z,39.29
2019-05-26T17:24:00.528Z,39.02
2019-05-26T17:26:28.816Z,38.64
2019-05-26T17:28:56.951Z,38.18
2019-05-26T17:31:25.140Z,36.99
2019-05-26T17:33:53.357Z,39.27
2019-05-26T17:36:21.572Z,38.13
2019-05-26T17:38:49.788Z,37.70
2019-05-26T17:41:17.891Z,38.38
2019-05-26T17:43:46.087Z,39.98
2019-05-26T17:46:15.244Z,38.54
2019-05-26T17:48:43.653Z,37.77
2019-05-26T17:51:11.847Z,41.84
2019-05-26T17:53:40.014Z,40.08
2019-05-26T17:56:08.184Z,41.29
2019-05-26T17:58:36.392Z,40.21
2019-05-26T18:01:04.704Z,39.46
2019-05-26T18:03:32.917Z,42.10
2019-05-26T18:06:01.168Z,39.69
2019-05-26T18:08:29.371Z,38.43
2019-05-26T18:10:57.704Z,38.50
2019-05-26T18:13:28.213Z,41.72
2019-05-26T18:15:56.370Z,38.47
2019-05-26T18:18:24.596Z,39.16
2019-05-26T18:20:52.852Z,38.90
2019-05-26T18:23:21.060Z,40.97
2019-05-26T18:25:49.217Z,41.91
2019-05-26T18:28:17.445Z,40.55
2019-05-26T18:30:45.633Z,40.61
2019-05-26T18:33:13.905Z,38.56
2019-05-26T18:35:42.071Z,38.12
2019-05-26T18:38:10.238Z,40.63
2019-05-26T18:40:38.376Z,39.77
2019-05-26T18:43:06.570Z,41.08
2019-05-26T18:45:34.873Z,40.72
2019-05-26T18:48:03.933Z,42.98
2019-05-26T18:50:32.251Z,43.34
2019-05-26T18:53:02.092Z,41.96
2019-05-26T18:55:31.472Z,41.89
2019-05-26T18:57:59.615Z,43.08
2019-05-26T19:00:31.022Z,43.48
2019-05-26T19:02:56.792Z,46.20
2019-05-26T19:05:34.524Z,46.82
2019-05-26T19:07:55.325Z,44.79
2019-05-26T19:10:23.620Z,45.39
2019-05-26T19:12:51.824Z,46.10
2019-05-26T19:15:20.118Z,49.18
2019-05-26T19:17:48.318Z,44.92
2019-05-26T19:20:17.419Z,44.53
2019-05-26T19:22:45.666Z,43.09
2019-05-26T19:25:13.848Z,43.22
2019-05-26T19:27:42.044Z,43.97
2019-05-26T19:30:10.943Z,44.14
2019-05-26T19:32:39.410Z,45.73
2019-05-26T19:35:07.733Z,45.61
2019-05-26T19:37:35.887Z,46.45
2019-05-26T19:40:04.549Z,46.04
2019-05-26T19:42:32.734Z,48.10
2019-05-26T19:45:01.019Z,45.02
2019-05-26T19:47:29.315Z,48.84
2019-05-26T19:49:57.567Z,45.75
2019-05-26T19:52:25.708Z,47.77
2019-05-26T19:54:53.917Z,51.02
2019-05-26T19:57:22.251Z,50.04
2019-05-26T19:59:50.411Z,49.65
2019-05-26T20:02:19.149Z,50.96
2019-05-26T20:04:47.546Z,50.49
2019-05-26T20:07:15.703Z,50.45
2019-05-26T20:09:43.944Z,50.36
2019-05-26T20:12:12.066Z,46.67
2019-05-26T20:14:40.216Z,46.92
2019-05-26T20:17:08.445Z,45.20
2019-05-26T20:19:36.749Z,50.73
2019-05-26T20:22:05.165Z,51.69
2019-05-26T20:24:33.617Z,51.10
2019-05-26T20:27:01.854Z,51.52
2019-05-26T20:29:30.101Z,51.46
2019-05-26T20:31:58.290Z,48.44
2019-05-26T20:34:26.675Z,48.32
2019-05-26T20:36:54.845Z,47.99
2019-05-26T20:39:23.253Z,47.96
2019-05-26T20:41:51.387Z,51.22
2019-05-26T20:44:19.695Z,49.75
2019-05-26T20:46:47.846Z,48.52
2019-05-26T20:49:16.048Z,51.05
2019-05-26T20:51:44.265Z,50.38
2019-05-26T20:54:12.501Z,46.13
2019-05-26T20:56:40.781Z,46.40
2019-05-26T20:59:08.925Z,50.98
2019-05-26T21:01:37.215Z,46.72
2019-05-26T21:04:05.514Z,47.31
2019-05-26T21:06:33.712Z,48.81
2019-05-26T21:09:01.915Z,46.13
2019-05-26T21:11:30.132Z,52.19
2019-05-26T21:13:58.275Z,48.26
2019-05-26T21:16:26.502Z,51.81
2019-05-26T21:18:54.675Z,52.95
2019-05-26T21:21:22.842Z,48.17
2019-05-26T21:23:51.012Z,52.53
2019-05-26T21:26:19.161Z,47.03
2019-05-26T21:28:47.378Z,49.40
2019-05-26T21:31:15.596Z,52.06
2019-05-26T21:33:43.851Z,54.84
2019-05-26T21:36:12.010Z,53.31
2019-05-26T21:38:40.236Z,52.24
2019-05-26T21:41:08.377Z,48.47
2019-05-26T21:43:36.545Z,52.73
2019-05-26T21:46:04.714Z,53.87
2019-05-26T21:48:34.799Z,49.88
2019-05-26T21:51:02.856Z,52.10
2019-05-26T21:53:30.994Z,53.92
2019-05-26T21:55:59.172Z,49.78
2019-05-26T21:58:27.376Z,47.41
2019-05-26T22:00:55.667Z,53.74
2019-05-26T22:03:24.857Z,52.92
2019-05-26T22:05:53.086Z,53.50
2019-05-26T22:08:21.250Z,48.11
2019-05-26T22:10:49.383Z,49.02
2019-05-26T22:13:17.478Z,53.45
2019-05-26T22:15:45.657Z,54.10
2019-05-26T22:18:13.810Z,50.21
2019-05-26T22:20:41.924Z,54.41
2019-05-26T22:23:10.033Z,50.58
2019-05-26T22:25:38.166Z,54.93
2019-05-26T22:28:06.288Z,54.83
2019-05-26T22:30:34.466Z,51.29
2019-05-26T22:33:04.002Z,53.83
2019-05-26T22:35:32.285Z,52.37
2019-05-26T22:38:01.720Z,50.81
2019-05-26T22:40:29.826Z,54.50
2019-05-26T22:42:58.019Z,51.02
2019-05-26T22:45:26.141Z,55.34
2019-05-26T22:47:54.287Z,55.96
2019-05-26T22:50:22.509Z,55.95
2019-05-26T22:52:50.638Z,55.81
2019-05-26T22:55:18.783Z,51.13
2019-05-26T22:57:46.957Z,54.70
2019-05-26T23:00:15.549Z,56.14
2019-05-26T23:02:43.729Z,52.32
2019-05-26T23:05:12.305Z,55.90
2019-05-26T23:07:40.487Z,55.52
2019-05-26T23:10:08.935Z,55.64
2019-05-26T23:12:37.151Z,56.21
2019-05-26T23:15:05.738Z,52.71
2019-05-26T23:17:33.861Z,55.07
2019-05-26T23:20:02.014Z,55.66
2019-05-26T23:22:30.795Z,52.63
2019-05-26T23:24:58.982Z,55.99
2019-05-26T23:27:27.089Z,55.14
2019-05-26T23:29:55.261Z,52.30
2019-05-26T23:32:23.345Z,52.37
2019-05-26T23:34:51.464Z,55.71
2019-05-26T23:37:19.790Z,56.93
2019-05-26T23:39:47.966Z,56.63
2019-05-26T23:42:16.090Z,56.11
2019-05-26T23:44:44.273Z,56.53
2019-05-26T23:47:12.451Z,56.53
2019-05-26T23:49:40.829Z,55.94
2019-05-26T23:52:08.931Z,56.75
2019-05-26T23:54:37.116Z,54.20
2019-05-26T23:57:05.227Z,55.75
2019-05-26T23:59:33.358Z,52.35
